sensor_id;sensor_type;location;lat;lon;timestamp;pressure;altitude;pressure_sealevel;temperature;humidity
46876;BME280;32866;50.160;14.768;2023-05-23T00:01:12;98983.75;;;13.62;100.00
46876;BME280;32866;50.160;14.768;2023-05-23T00:03:39;98983.16;;;13.82;100.00
46876;BME280;32866;50.160;14.768;2023-05-23T00:06:05;98985.78;;;14.01;100.00
46876;BME280;32866;50.160;14.768;2023-05-23T00:08:30;98984.78;;;14.13;100.00
46876;BME280;32866;50.160;14.768;2023-05-23T00:10:56;98964.59;;;13.92;100.00
46876;BME280;32866;50.160;14.768;2023-05-23T00:13:21;98960.69;;;13.84;100.00
46876;BME280;32866;50.160;14.768;2023-05-23T00:15:47;98985.44;;;14.08;100.00
46876;BME280;32866;50.160;14.768;2023-05-23T00:18:12;98980.13;;;14.04;100.00
46876;BME280;32866;50.160;14.768;2023-05-23T00:20:40;98983.81;;;14.01;100.00
46876;BME280;32866;50.160;14.768;2023-05-23T00:23:10;98990.03;;;13.87;100.00
46876;BME280;32866;50.160;14.768;2023-05-23T00:25:44;98993.78;;;13.99;100.00
46876;BME280;32866;50.160;14.768;2023-05-23T00:28:13;98988.81;;;13.88;100.00
46876;BME280;32866;50.160;14.768;2023-05-23T00:30:38;98978.09;;;13.90;100.00
46876;BME280;32866;50.160;14.768;2023-05-23T00:33:04;98971.81;;;13.65;100.00
46876;BME280;32866;50.160;14.768;2023-05-23T00:35:29;98978.09;;;13.66;100.00
46876;BME280;32866;50.160;14.768;2023-05-23T00:37:55;98982.91;;;13.56;100.00
46876;BME280;32866;50.160;14.768;2023-05-23T00:40:21;98969.81;;;13.42;100.00
46876;BME280;32866;50.160;14.768;2023-05-23T00:42:47;98987.22;;;13.48;100.00
46876;BME280;32866;50.160;14.768;2023-05-23T00:45:13;98959.16;;;13.34;100.00
46876;BME280;32866;50.160;14.768;2023-05-23T00:47:39;98956.94;;;13.48;100.00
46876;BME280;32866;50.160;14.768;2023-05-23T00:50:10;98974.03;;;13.52;100.00
46876;BME280;32866;50.160;14.768;2023-05-23T00:52:37;98937.50;;;13.18;100.00
46876;BME280;32866;50.160;14.768;2023-05-23T00:55:03;98957.13;;;13.11;100.00
46876;BME280;32866;50.160;14.768;2023-05-23T00:57:29;98977.84;;;13.21;100.00
46876;BME280;32866;50.160;14.768;2023-05-23T00:59:54;98973.06;;;12.97;100.00
46876;BME280;32866;50.160;14.768;2023-05-23T01:02:20;98966.06;;;12.87;100.00
46876;BME280;32866;50.160;14.768;2023-05-23T01:04:48;98993.97;;;13.04;100.00
46876;BME280;32866;50.160;14.768;2023-05-23T01:07:18;98996.44;;;13.02;100.00
46876;BME280;32866;50.160;14.768;2023-05-23T01:09:44;98992.16;;;13.01;100.00
46876;BME280;32866;50.160;14.768;2023-05-23T01:12:26;98987.13;;;12.90;100.00
46876;BME280;32866;50.160;14.768;2023-05-23T01:17:45;98981.59;;;12.99;100.00
46876;BME280;32866;50.160;14.768;2023-05-23T01:20:21;98963.78;;;12.86;100.00
46876;BME280;32866;50.160;14.768;2023-05-23T01:28:04;98985.63;;;12.80;100.00
46876;BME280;32866;50.160;14.768;2023-05-23T01:30:31;98961.56;;;12.56;100.00
46876;BME280;32866;50.160;14.768;2023-05-23T01:32:59;98955.19;;;12.50;100.00
46876;BME280;32866;50.160;14.768;2023-05-23T01:35:26;98963.88;;;12.49;100.00
46876;BME280;32866;50.160;14.768;2023-05-23T01:37:53;98967.69;;;12.51;100.00
46876;BME280;32866;50.160;14.768;2023-05-23T01:40:19;98964.91;;;12.70;100.00
46876;BME280;32866;50.160;14.768;2023-05-23T01:42:45;98949.53;;;12.96;100.00
46876;BME280;32866;50.160;14.768;2023-05-23T01:45:11;98931.28;;;12.75;100.00
46876;BME280;32866;50.160;14.768;2023-05-23T01:47:38;98933.44;;;12.71;100.00
46876;BME280;32866;50.160;14.768;2023-05-23T01:50:05;98941.06;;;12.67;100.00
46876;BME280;32866;50.160;14.768;2023-05-23T01:52:31;98911.69;;;12.49;100.00
46876;BME280;32866;50.160;14.768;2023-05-23T01:54:58;98920.97;;;12.51;100.00
46876;BME280;32866;50.160;14.768;2023-05-23T01:57:25;98947.81;;;12.56;100.00
46876;BME280;32866;50.160;14.768;2023-05-23T01:59:53;98934.91;;;12.29;100.00
46876;BME280;32866;50.160;14.768;2023-05-23T02:02:18;98942.66;;;12.49;100.00
46876;BME280;32866;50.160;14.768;2023-05-23T02:04:44;98939.28;;;12.45;100.00
46876;BME280;32866;50.160;14.768;2023-05-23T02:07:09;98949.44;;;12.20;100.00
46876;BME280;32866;50.160;14.768;2023-05-23T02:09:34;98952.47;;;12.32;100.00
46876;BME280;32866;50.160;14.768;2023-05-23T02:12:00;98943.56;;;12.46;100.00
46876;BME280;32866;50.160;14.768;2023-05-23T02:14:25;98944.19;;;12.50;100.00
46876;BME280;32866;50.160;14.768;2023-05-23T02:16:52;98936.41;;;12.39;100.00
46876;BME280;32866;50.160;14.768;2023-05-23T02:19:18;98944.84;;;12.17;100.00
46876;BME280;32866;50.160;14.768;2023-05-23T02:21:43;98941.66;;;12.19;100.00
46876;BME280;32866;50.160;14.768;2023-05-23T02:24:08;98924.88;;;12.17;100.00
46876;BME280;32866;50.160;14.768;2023-05-23T02:26:34;98963.72;;;12.43;100.00
46876;BME280;32866;50.160;14.768;2023-05-23T02:28:59;98935.53;;;12.15;100.00
46876;BME280;32866;50.160;14.768;2023-05-23T02:31:25;98971.72;;;12.32;100.00
46876;BME280;32866;50.160;14.768;2023-05-23T02:33:51;98948.50;;;12.23;100.00
46876;BME280;32866;50.160;14.768;2023-05-23T02:36:17;98947.59;;;12.17;100.00
46876;BME280;32866;50.160;14.768;2023-05-23T02:38:43;98946.38;;;12.09;100.00
46876;BME280;32866;50.160;14.768;2023-05-23T02:41:08;98958.56;;;12.08;100.00
46876;BME280;32866;50.160;14.768;2023-05-23T02:43:34;98958.56;;;12.08;100.00
46876;BME280;32866;50.160;14.768;2023-05-23T02:45:59;98951.22;;;12.33;100.00
46876;BME280;32866;50.160;14.768;2023-05-23T02:48:25;98944.84;;;12.08;100.00
46876;BME280;32866;50.160;14.768;2023-05-23T02:50:50;98980.84;;;12.38;100.00
46876;BME280;32866;50.160;14.768;2023-05-23T02:53:16;98978.72;;;12.42;100.00
46876;BME280;32866;50.160;14.768;2023-05-23T02:55:41;98964.03;;;12.45;100.00
46876;BME280;32866;50.160;14.768;2023-05-23T02:58:07;98980.50;;;12.54;100.00
46876;BME280;32866;50.160;14.768;2023-05-23T03:00:33;98973.81;;;12.46;100.00
46876;BME280;32866;50.160;14.768;2023-05-23T03:02:58;98972.41;;;12.60;100.00
46876;BME280;32866;50.160;14.768;2023-05-23T03:05:23;98987.81;;;12.67;100.00
46876;BME280;32866;50.160;14.768;2023-05-23T03:07:49;99000.63;;;12.70;100.00
46876;BME280;32866;50.160;14.768;2023-05-23T03:10:16;98951.19;;;12.51;100.00
46876;BME280;32866;50.160;14.768;2023-05-23T03:12:41;98975.94;;;12.60;100.00
46876;BME280;32866;50.160;14.768;2023-05-23T03:15:08;98959.44;;;12.60;100.00
46876;BME280;32866;50.160;14.768;2023-05-23T03:17:33;98958.34;;;12.67;100.00
46876;BME280;32866;50.160;14.768;2023-05-23T03:19:59;98979.25;;;12.74;100.00
46876;BME280;32866;50.160;14.768;2023-05-23T03:22:24;98978.97;;;12.62;100.00
46876;BME280;32866;50.160;14.768;2023-05-23T03:24:50;98964.94;;;12.60;100.00
46876;BME280;32866;50.160;14.768;2023-05-23T03:27:15;98958.66;;;12.60;100.00
46876;BME280;32866;50.160;14.768;2023-05-23T03:29:40;98964.94;;;12.60;100.00
46876;BME280;32866;50.160;14.768;2023-05-23T03:32:06;98958.38;;;12.58;100.00
46876;BME280;32866;50.160;14.768;2023-05-23T03:34:31;98954.69;;;12.52;100.00
46876;BME280;32866;50.160;14.768;2023-05-23T03:36:58;98955.78;;;12.64;100.00
46876;BME280;32866;50.160;14.768;2023-05-23T03:39:24;98960.06;;;12.46;100.00
46876;BME280;32866;50.160;14.768;2023-05-23T03:41:49;98942.69;;;12.21;100.00
46876;BME280;32866;50.160;14.768;2023-05-23T03:44:15;98955.91;;;12.60;100.00
46876;BME280;32866;50.160;14.768;2023-05-23T03:46:40;98965.22;;;12.53;100.00
46876;BME280;32866;50.160;14.768;2023-05-23T03:49:05;98956.41;;;12.49;100.00
46876;BME280;32866;50.160;14.768;2023-05-23T03:51:31;98954.56;;;12.46;100.00
46876;BME280;32866;50.160;14.768;2023-05-23T03:53:56;98967.53;;;12.55;100.00
46876;BME280;32866;50.160;14.768;2023-05-23T03:56:22;98947.81;;;12.56;100.00
46876;BME280;32866;50.160;14.768;2023-05-23T03:58:47;98942.03;;;12.54;100.00
46876;BME280;32866;50.160;14.768;2023-05-23T04:01:13;98960.69;;;12.50;100.00
46876;BME280;32866;50.160;14.768;2023-05-23T04:03:38;98947.41;;;12.39;100.00
46876;BME280;32866;50.160;14.768;2023-05-23T04:06:04;98940.88;;;12.37;100.00
46876;BME280;32866;50.160;14.768;2023-05-23T04:08:29;98967.66;;;12.70;100.00
46876;BME280;32866;50.160;14.768;2023-05-23T04:11:01;98956.94;;;12.72;100.00
46876;BME280;32866;50.160;14.768;2023-05-23T04:13:27;98948.09;;;12.68;100.00
46876;BME280;32866;50.160;14.768;2023-05-23T04:15:53;98950.50;;;12.84;100.00
46876;BME280;32866;50.160;14.768;2023-05-23T04:18:20;98952.88;;;13.01;100.00
46876;BME280;32866;50.160;14.768;2023-05-23T04:20:46;98921.69;;;13.04;100.00
46876;BME280;32866;50.160;14.768;2023-05-23T04:23:11;98931.13;;;13.12;100.00
46876;BME280;32866;50.160;14.768;2023-05-23T04:25:37;98933.59;;;13.43;100.00
46876;BME280;32866;50.160;14.768;2023-05-23T04:28:03;98928.84;;;13.68;100.00
46876;BME280;32866;50.160;14.768;2023-05-23T04:30:29;98928.03;;;13.91;100.00
46876;BME280;32866;50.160;14.768;2023-05-23T04:32:55;98946.97;;;14.14;100.00
46876;BME280;32866;50.160;14.768;2023-05-23T04:35:22;98934.41;;;14.13;100.00
46876;BME280;32866;50.160;14.768;2023-05-23T04:37:47;98924.38;;;14.09;100.00
46876;BME280;32866;50.160;14.768;2023-05-23T04:40:13;98940.16;;;14.24;100.00
46876;BME280;32866;50.160;14.768;2023-05-23T04:42:38;98927.50;;;14.17;100.00
46876;BME280;32866;50.160;14.768;2023-05-23T04:45:07;98909.00;;;14.18;100.00
46876;BME280;32866;50.160;14.768;2023-05-23T04:47:33;98925.81;;;14.20;100.00
46876;BME280;32866;50.160;14.768;2023-05-23T04:49:59;98929.31;;;14.20;100.00
46876;BME280;32866;50.160;14.768;2023-05-23T04:52:25;98933.41;;;14.25;100.00
46876;BME280;32866;50.160;14.768;2023-05-23T04:54:51;98896.91;;;14.00;100.00
46876;BME280;32866;50.160;14.768;2023-05-23T04:57:18;98930.06;;;14.21;100.00
46876;BME280;32866;50.160;14.768;2023-05-23T04:59:43;98917.81;;;14.07;100.00
46876;BME280;32866;50.160;14.768;2023-05-23T05:02:08;98937.28;;;14.18;100.00
46876;BME280;32866;50.160;14.768;2023-05-23T05:04:34;98928.19;;;14.27;100.00
46876;BME280;32866;50.160;14.768;2023-05-23T05:07:00;98922.19;;;14.43;100.00
46876;BME280;32866;50.160;14.768;2023-05-23T05:09:28;98897.88;;;14.27;100.00
46876;BME280;32866;50.160;14.768;2023-05-23T05:11:54;98927.25;;;14.45;100.00
46876;BME280;32866;50.160;14.768;2023-05-23T05:14:19;98882.28;;;14.24;100.00
46876;BME280;32866;50.160;14.768;2023-05-23T05:16:44;98925.06;;;14.64;100.00
46876;BME280;32866;50.160;14.768;2023-05-23T05:19:11;98910.13;;;14.71;100.00
46876;BME280;32866;50.160;14.768;2023-05-23T05:21:36;98918.56;;;14.82;100.00
46876;BME280;32866;50.160;14.768;2023-05-23T05:24:02;98918.63;;;15.02;100.00
46876;BME280;32866;50.160;14.768;2023-05-23T05:26:27;98910.34;;;15.02;100.00
46876;BME280;32866;50.160;14.768;2023-05-23T05:28:52;98871.50;;;14.86;100.00
46876;BME280;32866;50.160;14.768;2023-05-23T05:31:18;98902.09;;;15.23;100.00
46876;BME280;32866;50.160;14.768;2023-05-23T05:33:43;98896.25;;;15.36;100.00
46876;BME280;32866;50.160;14.768;2023-05-23T05:36:10;98889.53;;;15.63;100.00
46876;BME280;32866;50.160;14.768;2023-05-23T05:38:35;98880.38;;;15.72;100.00
46876;BME280;32866;50.160;14.768;2023-05-23T05:41:00;98890.81;;;16.09;100.00
46876;BME280;32866;50.160;14.768;2023-05-23T05:43:26;98888.00;;;16.29;100.00
46876;BME280;32866;50.160;14.768;2023-05-23T05:45:51;98897.66;;;16.45;100.00
46876;BME280;32866;50.160;14.768;2023-05-23T05:48:16;98878.56;;;16.16;100.00
46876;BME280;32866;50.160;14.768;2023-05-23T05:50:42;98897.41;;;15.91;100.00
46876;BME280;32866;50.160;14.768;2023-05-23T05:53:10;98890.84;;;15.68;100.00
46876;BME280;32866;50.160;14.768;2023-05-23T05:55:36;98882.88;;;15.29;100.00
46876;BME280;32866;50.160;14.768;2023-05-23T05:58:02;98910.13;;;15.83;100.00
46876;BME280;32866;50.160;14.768;2023-05-23T06:00:27;98914.34;;;15.57;100.00
46876;BME280;32866;50.160;14.768;2023-05-23T06:02:52;98924.69;;;15.63;100.00
46876;BME280;32866;50.160;14.768;2023-05-23T06:05:21;98922.28;;;15.70;100.00
46876;BME280;32866;50.160;14.768;2023-05-23T06:07:47;98935.75;;;15.83;100.00
46876;BME280;32866;50.160;14.768;2023-05-23T06:10:13;98923.41;;;16.05;100.00
46876;BME280;32866;50.160;14.768;2023-05-23T06:12:38;98948.47;;;16.48;100.00
46876;BME280;32866;50.160;14.768;2023-05-23T06:15:04;98948.13;;;16.40;100.00
46876;BME280;32866;50.160;14.768;2023-05-23T06:17:30;98942.22;;;16.53;100.00
46876;BME280;32866;50.160;14.768;2023-05-23T06:19:55;98938.78;;;16.90;100.00
46876;BME280;32866;50.160;14.768;2023-05-23T06:22:21;98958.25;;;17.50;100.00
46876;BME280;32866;50.160;14.768;2023-05-23T06:24:46;98940.34;;;17.46;100.00
46876;BME280;32866;50.160;14.768;2023-05-23T06:27:11;98965.09;;;18.21;100.00
46876;BME280;32866;50.160;14.768;2023-05-23T06:29:37;98937.88;;;18.13;100.00
46876;BME280;32866;50.160;14.768;2023-05-23T06:32:02;98970.19;;;18.62;98.39
46876;BME280;32866;50.160;14.768;2023-05-23T06:34:28;98951.53;;;18.68;100.00
46876;BME280;32866;50.160;14.768;2023-05-23T06:36:53;98969.91;;;19.33;95.96
46876;BME280;32866;50.160;14.768;2023-05-23T06:39:19;98950.59;;;19.80;97.89
46876;BME280;32866;50.160;14.768;2023-05-23T06:41:44;98977.41;;;20.25;91.70
46876;BME280;32866;50.160;14.768;2023-05-23T06:44:09;98989.06;;;20.65;86.79
46876;BME280;32866;50.160;14.768;2023-05-23T06:46:35;98960.94;;;20.99;84.85
46876;BME280;32866;50.160;14.768;2023-05-23T06:49:00;98996.19;;;21.21;88.42
46876;BME280;32866;50.160;14.768;2023-05-23T06:51:25;98995.25;;;20.83;85.32
46876;BME280;32866;50.160;14.768;2023-05-23T06:53:50;98965.44;;;20.42;89.24
46876;BME280;32866;50.160;14.768;2023-05-23T06:56:16;98996.66;;;20.59;87.45
46876;BME280;32866;50.160;14.768;2023-05-23T06:58:41;98951.97;;;20.46;86.43
46876;BME280;32866;50.160;14.768;2023-05-23T07:01:06;98969.34;;;20.16;91.61
46876;BME280;32866;50.160;14.768;2023-05-23T07:03:32;98993.41;;;20.55;90.97
46876;BME280;32866;50.160;14.768;2023-05-23T07:05:57;98955.28;;;20.02;89.90
46876;BME280;32866;50.160;14.768;2023-05-23T07:08:23;98994.75;;;19.95;88.13
46876;BME280;32866;50.160;14.768;2023-05-23T07:10:48;98958.97;;;19.75;91.24
46876;BME280;32866;50.160;14.768;2023-05-23T07:13:13;98985.75;;;20.25;90.36
46876;BME280;32866;50.160;14.768;2023-05-23T07:15:39;98950.03;;;19.93;90.50
46876;BME280;32866;50.160;14.768;2023-05-23T07:18:04;98985.47;;;19.81;89.00
46876;BME280;32866;50.160;14.768;2023-05-23T07:20:32;98970.34;;;19.60;92.87
46876;BME280;32866;50.160;14.768;2023-05-23T07:22:57;98939.66;;;19.13;93.59
46876;BME280;32866;50.160;14.768;2023-05-23T07:25:22;98971.69;;;19.36;94.88
46876;BME280;32866;50.160;14.768;2023-05-23T07:27:48;98955.78;;;19.25;95.33
46876;BME280;32866;50.160;14.768;2023-05-23T07:30:13;98984.22;;;19.77;94.52
46876;BME280;32866;50.160;14.768;2023-05-23T07:32:40;98982.91;;;19.89;91.64
46876;BME280;32866;50.160;14.768;2023-05-23T07:35:06;98988.41;;;20.00;93.40
46876;BME280;32866;50.160;14.768;2023-05-23T07:37:31;99001.72;;;20.19;86.20
46876;BME280;32866;50.160;14.768;2023-05-23T07:39:56;98971.31;;;19.74;88.93
46876;BME280;32866;50.160;14.768;2023-05-23T07:42:22;98976.63;;;19.83;90.02
46876;BME280;32866;50.160;14.768;2023-05-23T07:44:47;98994.31;;;20.33;83.95
46876;BME280;32866;50.160;14.768;2023-05-23T07:47:12;98987.56;;;21.49;81.51
46876;BME280;32866;50.160;14.768;2023-05-23T07:49:38;98979.34;;;22.20;76.08
46876;BME280;32866;50.160;14.768;2023-05-23T07:52:03;98982.66;;;21.80;76.02
46876;BME280;32866;50.160;14.768;2023-05-23T07:54:28;98978.81;;;21.83;78.37
46876;BME280;32866;50.160;14.768;2023-05-23T07:56:54;98974.66;;;21.71;76.51
46876;BME280;32866;50.160;14.768;2023-05-23T07:59:19;98997.44;;;21.75;79.95
46876;BME280;32866;50.160;14.768;2023-05-23T08:01:46;99000.44;;;21.77;79.80
46876;BME280;32866;50.160;14.768;2023-05-23T08:04:15;98998.94;;;21.27;84.35
46876;BME280;32866;50.160;14.768;2023-05-23T08:06:40;98977.19;;;20.59;85.13
46876;BME280;32866;50.160;14.768;2023-05-23T08:09:05;98990.75;;;20.38;91.38
46876;BME280;32866;50.160;14.768;2023-05-23T08:11:31;99016.13;;;20.23;90.50
46876;BME280;32866;50.160;14.768;2023-05-23T08:13:56;99000.84;;;19.88;96.46
46876;BME280;32866;50.160;14.768;2023-05-23T08:16:22;98997.06;;;19.86;96.27
46876;BME280;32866;50.160;14.768;2023-05-23T08:18:47;99025.19;;;20.77;98.19
46876;BME280;32866;50.160;14.768;2023-05-23T08:21:13;99024.59;;;20.84;92.06
46876;BME280;32866;50.160;14.768;2023-05-23T08:23:38;99032.06;;;20.64;97.40
46876;BME280;32866;50.160;14.768;2023-05-23T08:26:04;99039.47;;;20.92;90.19
46876;BME280;32866;50.160;14.768;2023-05-23T08:28:29;99013.69;;;20.86;92.30
46876;BME280;32866;50.160;14.768;2023-05-23T08:30:54;99033.41;;;20.93;92.25
46876;BME280;32866;50.160;14.768;2023-05-23T08:33:21;99023.53;;;20.92;90.86
46876;BME280;32866;50.160;14.768;2023-05-23T08:35:46;99038.41;;;21.01;89.66
46876;BME280;32866;50.160;14.768;2023-05-23T08:38:12;99007.84;;;20.48;92.22
46876;BME280;32866;50.160;14.768;2023-05-23T08:40:38;99045.69;;;20.26;96.20
46876;BME280;32866;50.160;14.768;2023-05-23T08:43:05;99026.66;;;19.60;100.00
46876;BME280;32866;50.160;14.768;2023-05-23T08:45:30;99065.84;;;19.45;100.00
46876;BME280;32866;50.160;14.768;2023-05-23T08:47:59;99066.63;;;19.35;100.00
46876;BME280;32866;50.160;14.768;2023-05-23T08:50:27;99070.66;;;19.17;100.00
46876;BME280;32866;50.160;14.768;2023-05-23T08:52:58;99054.66;;;18.49;100.00
46876;BME280;32866;50.160;14.768;2023-05-23T08:55:26;99067.53;;;18.52;100.00
46876;BME280;32866;50.160;14.768;2023-05-23T08:57:52;99047.47;;;18.09;100.00
46876;BME280;32866;50.160;14.768;2023-05-23T09:00:18;99067.78;;;17.89;100.00
46876;BME280;32866;50.160;14.768;2023-05-23T09:02:43;99063.91;;;17.75;100.00
46876;BME280;32866;50.160;14.768;2023-05-23T09:05:09;99064.19;;;17.83;100.00
46876;BME280;32866;50.160;14.768;2023-05-23T09:07:35;99062.63;;;17.70;100.00
46876;BME280;32866;50.160;14.768;2023-05-23T09:10:02;99061.81;;;17.58;100.00
46876;BME280;32866;50.160;14.768;2023-05-23T09:12:28;99071.91;;;17.61;100.00
46876;BME280;32866;50.160;14.768;2023-05-23T09:14:53;99071.41;;;17.63;100.00
46876;BME280;32866;50.160;14.768;2023-05-23T09:17:18;99067.84;;;17.57;100.00
46876;BME280;32866;50.160;14.768;2023-05-23T09:19:44;99081.44;;;17.55;100.00
46876;BME280;32866;50.160;14.768;2023-05-23T09:22:23;99076.47;;;17.70;100.00
46876;BME280;32866;50.160;14.768;2023-05-23T09:24:56;99086.25;;;17.60;100.00
46876;BME280;32866;50.160;14.768;2023-05-23T09:27:22;99089.47;;;17.90;100.00
46876;BME280;32866;50.160;14.768;2023-05-23T09:29:48;99085.13;;;18.27;100.00
46876;BME280;32866;50.160;14.768;2023-05-23T09:32:15;99084.88;;;18.30;100.00
46876;BME280;32866;50.160;14.768;2023-05-23T09:35:00;99097.69;;;18.28;100.00
46876;BME280;32866;50.160;14.768;2023-05-23T09:37:36;99098.44;;;18.17;100.00
46876;BME280;32866;50.160;14.768;2023-05-23T09:40:07;99106.81;;;17.85;100.00
46876;BME280;32866;50.160;14.768;2023-05-23T09:42:44;99103.16;;;17.68;100.00
46876;BME280;32866;50.160;14.768;2023-05-23T09:45:11;99087.81;;;17.72;100.00
46876;BME280;32866;50.160;14.768;2023-05-23T09:47:36;99071.66;;;17.65;100.00
46876;BME280;32866;50.160;14.768;2023-05-23T09:50:02;99098.34;;;17.62;100.00
46876;BME280;32866;50.160;14.768;2023-05-23T09:52:41;99089.78;;;17.66;100.00
46876;BME280;32866;50.160;14.768;2023-05-23T09:55:07;99096.78;;;17.56;100.00
46876;BME280;32866;50.160;14.768;2023-05-23T09:57:36;99098.31;;;17.57;100.00
46876;BME280;32866;50.160;14.768;2023-05-23T10:00:04;99097.75;;;17.53;100.00
46876;BME280;32866;50.160;14.768;2023-05-23T10:02:53;99110.91;;;17.26;100.00
46876;BME280;32866;50.160;14.768;2023-05-23T10:08:26;99114.31;;;17.41;100.00
46876;BME280;32866;50.160;14.768;2023-05-23T10:13:20;99108.84;;;17.21;100.00
46876;BME280;32866;50.160;14.768;2023-05-23T10:15:48;99106.03;;;17.47;100.00
46876;BME280;32866;50.160;14.768;2023-05-23T10:18:15;99103.81;;;17.89;100.00
46876;BME280;32866;50.160;14.768;2023-05-23T10:20:46;99114.06;;;18.20;100.00
46876;BME280;32866;50.160;14.768;2023-05-23T10:23:13;99094.38;;;18.18;100.00
46876;BME280;32866;50.160;14.768;2023-05-23T10:25:41;99104.94;;;18.08;100.00
46876;BME280;32866;50.160;14.768;2023-05-23T10:28:07;99082.75;;;17.65;100.00
46876;BME280;32866;50.160;14.768;2023-05-23T10:30:33;99108.66;;;17.62;100.00
46876;BME280;32866;50.160;14.768;2023-05-23T10:32:58;99080.88;;;17.19;100.00
46876;BME280;32866;50.160;14.768;2023-05-23T10:35:40;99115.28;;;17.06;100.00
46876;BME280;32866;50.160;14.768;2023-05-23T10:43:35;99109.66;;;17.27;100.00
46876;BME280;32866;50.160;14.768;2023-05-23T10:46:07;99116.44;;;17.58;100.00
46876;BME280;32866;50.160;14.768;2023-05-23T10:48:34;99111.16;;;17.92;100.00
46876;BME280;32866;50.160;14.768;2023-05-23T10:53:34;99109.34;;;18.43;100.00
46876;BME280;32866;50.160;14.768;2023-05-23T10:56:00;99110.53;;;18.97;100.00
46876;BME280;32866;50.160;14.768;2023-05-23T10:58:27;99107.00;;;19.19;100.00
46876;BME280;32866;50.160;14.768;2023-05-23T11:01:15;99105.47;;;19.69;100.00
46876;BME280;32866;50.160;14.768;2023-05-23T11:06:42;99101.38;;;20.04;100.00
46876;BME280;32866;50.160;14.768;2023-05-23T11:09:16;99100.41;;;19.84;100.00
46876;BME280;32866;50.160;14.768;2023-05-23T11:11:53;99064.75;;;19.94;100.00
46876;BME280;32866;50.160;14.768;2023-05-23T11:16:55;99093.72;;;20.27;100.00
46876;BME280;32866;50.160;14.768;2023-05-23T11:19:22;99100.47;;;20.43;100.00
46876;BME280;32866;50.160;14.768;2023-05-23T11:24:15;99079.22;;;20.45;100.00
46876;BME280;32866;50.160;14.768;2023-05-23T11:26:51;99079.97;;;20.93;100.00
46876;BME280;32866;50.160;14.768;2023-05-23T11:29:18;99085.44;;;20.68;100.00
46876;BME280;32866;50.160;14.768;2023-05-23T11:31:43;99085.22;;;20.66;100.00
46876;BME280;32866;50.160;14.768;2023-05-23T11:34:08;99086.50;;;20.54;100.00
46876;BME280;32866;50.160;14.768;2023-05-23T11:36:35;99075.09;;;20.57;100.00
46876;BME280;32866;50.160;14.768;2023-05-23T11:39:01;99076.09;;;20.13;100.00
46876;BME280;32866;50.160;14.768;2023-05-23T11:41:27;99045.28;;;19.99;100.00
46876;BME280;32866;50.160;14.768;2023-05-23T11:43:53;99071.00;;;20.17;100.00
46876;BME280;32866;50.160;14.768;2023-05-23T11:46:18;99051.41;;;19.70;100.00
46876;BME280;32866;50.160;14.768;2023-05-23T11:48:45;99057.00;;;19.58;100.00
46876;BME280;32866;50.160;14.768;2023-05-23T11:51:10;99077.47;;;19.61;100.00
46876;BME280;32866;50.160;14.768;2023-05-23T11:53:36;99069.91;;;19.27;100.00
46876;BME280;32866;50.160;14.768;2023-05-23T11:56:02;99047.22;;;19.12;100.00
46876;BME280;32866;50.160;14.768;2023-05-23T11:58:35;99066.91;;;19.14;100.00
46876;BME280;32866;50.160;14.768;2023-05-23T12:01:08;99067.13;;;19.05;100.00
46876;BME280;32866;50.160;14.768;2023-05-23T12:03:44;99039.59;;;18.79;100.00
46876;BME280;32866;50.160;14.768;2023-05-23T12:06:10;99045.66;;;18.83;100.00
46876;BME280;32866;50.160;14.768;2023-05-23T12:08:35;99083.78;;;18.94;100.00
46876;BME280;32866;50.160;14.768;2023-05-23T12:11:01;99077.75;;;19.12;100.00
46876;BME280;32866;50.160;14.768;2023-05-23T12:13:28;99074.22;;;19.06;100.00
46876;BME280;32866;50.160;14.768;2023-05-23T12:16:00;99050.22;;;18.97;100.00
46876;BME280;32866;50.160;14.768;2023-05-23T12:18:30;99070.41;;;19.20;100.00
46876;BME280;32866;50.160;14.768;2023-05-23T12:21:00;99043.91;;;18.85;100.00
46876;BME280;32866;50.160;14.768;2023-05-23T12:23:27;99073.44;;;19.34;100.00
46876;BME280;32866;50.160;14.768;2023-05-23T12:25:54;99067.81;;;19.73;100.00
46876;BME280;32866;50.160;14.768;2023-05-23T12:28:21;99065.22;;;21.04;100.00
46876;BME280;32866;50.160;14.768;2023-05-23T12:30:58;99047.41;;;22.36;100.00
46876;BME280;32866;50.160;14.768;2023-05-23T12:33:24;99065.47;;;22.67;100.00
46876;BME280;32866;50.160;14.768;2023-05-23T12:35:49;99040.78;;;21.95;100.00
46876;BME280;32866;50.160;14.768;2023-05-23T12:38:15;99044.13;;;21.69;100.00
46876;BME280;32866;50.160;14.768;2023-05-23T12:40:43;99057.47;;;22.77;100.00
46876;BME280;32866;50.160;14.768;2023-05-23T12:43:09;99067.78;;;22.50;100.00
46876;BME280;32866;50.160;14.768;2023-05-23T12:45:35;99065.19;;;22.33;100.00
46876;BME280;32866;50.160;14.768;2023-05-23T12:48:04;99055.16;;;22.81;100.00
46876;BME280;32866;50.160;14.768;2023-05-23T12:50:30;99059.03;;;23.83;97.16
46876;BME280;32866;50.160;14.768;2023-05-23T12:52:55;99033.38;;;24.32;89.60
46876;BME280;32866;50.160;14.768;2023-05-23T12:55:21;99028.88;;;25.06;89.19
46876;BME280;32866;50.160;14.768;2023-05-23T12:57:46;99041.28;;;24.41;87.69
46876;BME280;32866;50.160;14.768;2023-05-23T13:00:12;99072.41;;;24.86;90.23
46876;BME280;32866;50.160;14.768;2023-05-23T13:02:38;99055.56;;;24.30;89.87
46876;BME280;32866;50.160;14.768;2023-05-23T13:05:04;99070.13;;;24.63;89.53
46876;BME280;32866;50.160;14.768;2023-05-23T13:07:29;99052.16;;;23.97;97.15
46876;BME280;32866;50.160;14.768;2023-05-23T13:09:55;99070.31;;;24.99;89.85